Austintown, Ohio
Current Conditions -  °F | °C
As of 12:51 AM on Friday 19 Dec 2014 (Local Time) from KYNG Reporting Station
Freezing Drizzle Freezing Drizzle  
Wind Chill: 20°   Ceiling: 400
Heat Index: 28°   Visibility: 4mi
Dew Point: 27°   Wind: 8mph
Humidity: 96%   Direction: 250°WSW
Pressure: 30.12"   Gusts: NA
Location:  41.1°N, 80.76°W
Report Text: KYNG 190551Z 25007KT 4SM -FZDZ BR OVC004 M02/M03 A3012 RMK AO2 FZRAE40FZDZB40SNE47 SLP213 P0000 60001 I1000 I6000 T10221028 11022 21022 50000
Loading
Personal Weather Stations






























Interactive Weather Map New forecast layout! Learn more

10-Day Weather Forecast

Advertisements
Track Severe Weather on mobile